createdAt,value
2022-11-18T00:01:10.093Z,11.21
2022-11-18T00:03:38.205Z,11.18
2022-11-18T00:06:06.226Z,11.16
2022-11-18T00:08:34.236Z,11.09
2022-11-18T00:11:46.314Z,11.19
2022-11-18T00:14:19.531Z,11.16
2022-11-18T00:16:50.886Z,11.14
2022-11-18T00:19:19.501Z,11.08
2022-11-18T00:21:46.662Z,11.00
2022-11-18T00:24:13.517Z,10.94
2022-11-18T00:26:40.387Z,10.97
2022-11-18T00:29:09.080Z,10.93
2022-11-18T00:31:35.967Z,10.85
2022-11-18T00:34:02.833Z,10.80
2022-11-18T00:36:29.842Z,10.82
2022-11-18T00:38:56.728Z,10.76
2022-11-18T00:41:23.774Z,10.81
2022-11-18T00:43:50.617Z,10.82
2022-11-18T00:46:17.417Z,10.75
2022-11-18T00:48:44.344Z,10.73
2022-11-18T00:51:16.901Z,10.61
2022-11-18T00:53:44.327Z,10.52
2022-11-18T00:56:11.544Z,10.58
2022-11-18T00:58:38.330Z,10.56
2022-11-18T01:01:05.485Z,10.51
2022-11-18T01:03:32.549Z,10.47
2022-11-18T01:05:59.512Z,10.36
2022-11-18T01:08:26.368Z,10.26
2022-11-18T01:10:53.770Z,10.04
2022-11-18T01:13:23.797Z,10.02
2022-11-18T01:15:55.847Z,9.88
2022-11-18T01:18:28.224Z,9.82
2022-11-18T01:21:00.913Z,9.77
2022-11-18T01:23:27.843Z,9.60
2022-11-18T01:25:55.195Z,9.58
2022-11-18T01:28:24.160Z,9.52
2022-11-18T01:30:51.663Z,9.49
2022-11-18T01:33:18.544Z,9.49
2022-11-18T01:35:45.694Z,9.47
2022-11-18T01:38:14.222Z,9.44
2022-11-18T01:40:42.066Z,9.37
2022-11-18T01:43:17.683Z,9.39
2022-11-18T01:45:46.879Z,9.38
2022-11-18T01:48:21.361Z,9.45
2022-11-18T01:50:51.280Z,9.53
2022-11-18T01:53:25.829Z,9.55
2022-11-18T01:55:55.720Z,9.55
2022-11-18T01:58:27.545Z,9.47
2022-11-18T02:00:54.749Z,9.46
2022-11-18T02:03:22.628Z,9.53
2022-11-18T02:05:50.852Z,9.60
2022-11-18T02:08:19.195Z,9.64
2022-11-18T02:10:46.036Z,9.53
2022-11-18T02:13:13.576Z,9.64
2022-11-18T02:16:15.803Z,9.58
2022-11-18T02:18:55.340Z,9.56
2022-11-18T02:21:22.172Z,9.52
2022-11-18T02:24:01.563Z,9.41
2022-11-18T02:26:50.215Z,9.38
2022-11-18T02:29:26.848Z,9.28
2022-11-18T02:31:56.658Z,9.20
2022-11-18T02:34:50.801Z,9.16
2022-11-18T02:38:02.777Z,9.11
2022-11-18T02:40:34.893Z,9.07
2022-11-18T02:43:07.533Z,9.00
2022-11-18T02:45:37.116Z,8.99
2022-11-18T02:48:09.308Z,9.01
2022-11-18T02:50:38.640Z,8.96
2022-11-18T02:53:08.659Z,8.82
2022-11-18T02:55:38.208Z,8.82
2022-11-18T02:58:06.392Z,8.82
2022-11-18T03:00:33.928Z,8.78
2022-11-18T03:03:00.987Z,8.64
2022-11-18T03:05:40.228Z,8.60
2022-11-18T03:26:34.527Z,7.66
2022-11-18T03:29:08.177Z,7.74
2022-11-18T03:31:40.776Z,7.93
2022-11-18T03:34:28.548Z,8.04
2022-11-18T03:37:01.177Z,8.12
2022-11-18T03:39:32.600Z,8.20
2022-11-18T03:42:08.823Z,8.28
2022-11-18T03:44:39.117Z,8.34
2022-11-18T03:47:15.017Z,8.37
2022-11-18T03:49:52.061Z,8.42
2022-11-18T03:52:23.512Z,8.39
2022-11-18T03:54:54.591Z,8.41
2022-11-18T03:57:26.018Z,8.45
2022-11-18T04:00:03.320Z,8.39
2022-11-18T04:02:32.031Z,8.38
2022-11-18T04:05:01.151Z,8.36
2022-11-18T04:07:36.852Z,8.43
2022-11-18T04:10:50.336Z,8.46
2022-11-18T04:13:28.341Z,8.42
2022-11-18T04:15:55.828Z,8.41
2022-11-18T04:18:23.099Z,8.42
2022-11-18T04:20:50.023Z,8.47
2022-11-18T04:23:16.778Z,8.49
2022-11-18T04:25:43.649Z,8.64
2022-11-18T04:28:10.659Z,8.63
2022-11-18T04:30:37.527Z,8.67
2022-11-18T04:33:05.239Z,8.65
2022-11-18T04:35:32.194Z,8.71
2022-11-18T04:37:58.984Z,8.74
2022-11-18T04:40:25.841Z,8.79
2022-11-18T04:42:52.679Z,8.77
2022-11-18T04:45:19.508Z,8.91
2022-11-18T04:47:46.399Z,8.98
2022-11-18T04:50:13.223Z,8.94
2022-11-18T04:52:40.020Z,9.03
2022-11-18T04:55:07.087Z,8.95
2022-11-18T04:57:33.959Z,8.92
2022-11-18T05:00:00.828Z,8.94
2022-11-18T05:02:27.607Z,8.89
2022-11-18T05:04:54.376Z,8.85
2022-11-18T05:07:21.305Z,8.89
2022-11-18T05:09:48.132Z,8.80
2022-11-18T05:12:33.818Z,8.82
2022-11-18T05:15:00.985Z,8.77
2022-11-18T05:17:27.921Z,8.90
2022-11-18T05:19:54.821Z,9.05
2022-11-18T05:22:21.700Z,9.35
2022-11-18T05:24:49.175Z,9.82
2022-11-18T05:27:16.405Z,10.22
2022-11-18T05:29:43.590Z,10.83
2022-11-18T05:32:11.010Z,11.50
2022-11-18T05:34:39.177Z,12.34
2022-11-18T05:37:06.039Z,12.71
2022-11-18T05:39:33.903Z,13.29
2022-11-18T05:42:19.909Z,13.49
2022-11-18T05:44:47.052Z,13.10
2022-11-18T05:47:14.095Z,12.71
2022-11-18T05:49:40.928Z,12.69
2022-11-18T05:52:07.866Z,12.65
2022-11-18T05:54:34.839Z,13.00
2022-11-18T05:57:01.770Z,13.88
2022-11-18T05:59:28.986Z,14.92
2022-11-18T06:02:02.047Z,15.95
2022-11-18T06:04:38.150Z,16.40
2022-11-18T06:07:13.358Z,17.40
2022-11-18T06:09:45.083Z,18.48
2022-11-18T06:12:15.661Z,19.20
2022-11-18T06:14:48.693Z,20.28
2022-11-18T06:17:20.579Z,21.72
2022-11-18T06:19:47.598Z,22.25
2022-11-18T06:22:14.704Z,23.10
2022-11-18T06:24:43.476Z,23.68
2022-11-18T06:27:11.075Z,22.16
2022-11-18T06:29:37.950Z,20.63
2022-11-18T06:32:04.885Z,20.80
2022-11-18T06:34:33.613Z,21.79
2022-11-18T06:37:18.043Z,22.58
2022-11-18T06:39:44.886Z,24.40
2022-11-18T06:42:11.946Z,25.46
2022-11-18T06:44:38.769Z,25.81
2022-11-18T06:47:05.816Z,25.48
2022-11-18T06:49:32.655Z,25.97
2022-11-18T06:51:59.554Z,24.99
2022-11-18T06:54:26.441Z,24.80
2022-11-18T06:56:53.379Z,25.60
2022-11-18T06:59:23.958Z,25.90
2022-11-18T07:01:53.446Z,24.50
2022-11-18T07:04:20.957Z,24.32
2022-11-18T07:06:47.872Z,23.80
2022-11-18T07:09:14.919Z,23.39
2022-11-18T07:11:42.084Z,24.67
2022-11-18T07:14:09.782Z,23.65
2022-11-18T07:16:37.079Z,21.79
2022-11-18T07:19:10.448Z,21.61
2022-11-18T07:21:38.168Z,20.94
2022-11-18T07:24:07.772Z,19.55
2022-11-18T07:26:35.778Z,18.54
2022-11-18T07:29:02.681Z,17.89
2022-11-18T07:31:29.577Z,17.15
2022-11-18T07:33:56.622Z,16.70
2022-11-18T07:36:29.656Z,16.34
2022-11-18T07:39:00.965Z,15.88
2022-11-18T07:41:29.866Z,15.57
2022-11-18T07:44:00.841Z,15.80
2022-11-18T07:46:32.111Z,17.71
2022-11-18T07:49:01.365Z,19.24
2022-11-18T07:51:30.776Z,21.45
2022-11-18T07:53:57.702Z,23.24
2022-11-18T07:56:25.005Z,25.50
2022-11-18T07:58:56.047Z,25.43
2022-11-18T08:01:25.507Z,25.98
2022-11-18T08:03:52.481Z,26.17
2022-11-18T08:06:19.701Z,25.08
2022-11-18T08:08:47.320Z,23.77
2022-11-18T08:11:22.770Z,24.75
2022-11-18T08:13:51.728Z,25.96
2022-11-18T08:16:21.215Z,27.19
2022-11-18T08:18:48.819Z,27.02
2022-11-18T08:21:17.664Z,27.71
2022-11-18T08:23:50.074Z,26.00
2022-11-18T08:26:17.244Z,24.99
2022-11-18T08:28:44.835Z,23.96
2022-11-18T08:31:14.192Z,22.86
2022-11-18T08:33:43.783Z,23.45
2022-11-18T08:36:15.155Z,24.23
2022-11-18T08:38:42.148Z,22.97
2022-11-18T08:41:13.950Z,22.62
2022-11-18T08:43:40.901Z,22.84
2022-11-18T08:46:07.700Z,24.77
2022-11-18T08:48:34.742Z,23.55
2022-11-18T08:51:02.594Z,22.80
2022-11-18T08:53:29.580Z,22.42
2022-11-18T08:56:00.982Z,22.70
2022-11-18T08:58:28.104Z,24.24
2022-11-18T09:00:55.437Z,23.43
2022-11-18T09:03:22.956Z,23.36
2022-11-18T09:05:50.291Z,23.22
2022-11-18T09:08:17.206Z,21.94
2022-11-18T09:10:44.072Z,22.65
2022-11-18T09:13:53.328Z,22.80
2022-11-18T09:16:01.934Z,23.36
2022-11-18T09:18:29.812Z,22.13
2022-11-18T09:20:58.994Z,21.70
2022-11-18T09:23:26.048Z,22.68
2022-11-18T09:26:07.895Z,25.33
2022-11-18T09:28:35.287Z,27.77
2022-11-18T09:31:08.108Z,24.71
2022-11-18T09:33:36.093Z,24.44
2022-11-18T09:36:02.994Z,26.68
2022-11-18T09:38:31.084Z,25.38
2022-11-18T09:41:09.782Z,24.65
2022-11-18T09:43:55.375Z,23.29
2022-11-18T09:46:57.139Z,24.33
2022-11-18T09:49:34.096Z,25.01
2022-11-18T09:52:27.539Z,26.38
2022-11-18T09:54:58.422Z,27.37
2022-11-18T09:57:39.883Z,26.07
2022-11-18T10:00:24.641Z,26.71
2022-11-18T10:03:01.906Z,26.31
2022-11-18T10:05:44.642Z,28.63
2022-11-18T10:08:35.697Z,28.87
2022-11-18T10:11:18.172Z,24.81
2022-11-18T10:13:59.968Z,26.81
2022-11-18T10:16:33.233Z,27.14
2022-11-18T10:19:12.409Z,28.14
2022-11-18T10:21:51.446Z,28.50
2022-11-18T10:24:30.524Z,29.16
2022-11-18T10:26:59.515Z,30.26
2022-11-18T10:29:27.287Z,31.30
2022-11-18T10:32:13.731Z,32.41
2022-11-18T10:35:23.021Z,29.49
2022-11-18T10:38:14.701Z,27.74
2022-11-18T10:41:15.475Z,26.65
2022-11-18T10:43:49.624Z,27.29
2022-11-18T10:46:24.170Z,27.87
2022-11-18T10:49:09.272Z,28.69
2022-11-18T10:51:45.188Z,27.21
2022-11-18T10:54:15.386Z,27.65
2022-11-18T10:56:58.377Z,27.22
2022-11-18T10:59:39.094Z,27.05
2022-11-18T11:02:32.508Z,26.62
2022-11-18T11:05:02.657Z,24.98
2022-11-18T11:07:35.265Z,23.23
2022-11-18T11:10:23.630Z,24.16
2022-11-18T11:13:00.014Z,24.31
2022-11-18T11:15:41.806Z,24.12
2022-11-18T11:18:42.183Z,24.93
2022-11-18T11:21:17.045Z,24.70
2022-11-18T11:23:44.828Z,24.89
2022-11-18T11:29:19.400Z,27.07
2022-11-18T11:32:29.485Z,27.39
2022-11-18T11:35:07.384Z,26.52
2022-11-18T11:37:55.687Z,26.54
2022-11-18T11:40:34.891Z,25.98
2022-11-18T11:43:20.600Z,25.21
2022-11-18T11:46:09.125Z,24.65
2022-11-18T11:49:05.892Z,24.42
2022-11-18T11:51:33.445Z,24.74
2022-11-18T11:54:09.435Z,24.35
2022-11-18T11:56:50.125Z,24.40
2022-11-18T11:59:39.799Z,24.03
2022-11-18T12:02:44.735Z,23.67
2022-11-18T12:05:40.604Z,22.90
2022-11-18T12:08:13.713Z,22.36
2022-11-18T12:11:02.426Z,22.19
2022-11-18T12:13:53.383Z,23.29
2022-11-18T12:16:39.053Z,22.56
2022-11-18T12:19:13.801Z,22.02
2022-11-18T12:21:46.594Z,20.32
2022-11-18T12:24:34.341Z,18.70
2022-11-18T12:27:10.368Z,17.72
2022-11-18T12:29:49.315Z,17.16
2022-11-18T12:32:48.719Z,16.59
2022-11-18T12:35:15.493Z,16.44
2022-11-18T12:37:51.366Z,16.09
2022-11-18T12:40:37.920Z,15.85
2022-11-18T12:43:29.950Z,15.80
2022-11-18T12:45:58.494Z,15.57
2022-11-18T12:48:33.311Z,15.44
2022-11-18T12:51:31.090Z,15.53
2022-11-18T12:53:58.190Z,15.47
2022-11-18T12:56:27.944Z,15.38
2022-11-18T12:58:57.402Z,15.41
2022-11-18T13:01:29.578Z,15.39
2022-11-18T13:04:13.610Z,15.33
2022-11-18T13:06:40.988Z,15.36
2022-11-18T13:09:30.319Z,15.37
2022-11-18T13:12:17.036Z,15.32
2022-11-18T13:15:03.889Z,15.33
2022-11-18T13:17:53.018Z,15.24
2022-11-18T13:20:24.678Z,15.18
2022-11-18T13:23:15.409Z,15.12
2022-11-18T13:25:45.836Z,15.20
2022-11-18T13:28:18.380Z,15.10
2022-11-18T13:31:13.828Z,15.17
2022-11-18T13:33:40.961Z,15.16
2022-11-18T13:36:22.960Z,15.18
2022-11-18T13:38:58.315Z,15.12
2022-11-18T13:41:32.796Z,15.06
2022-11-18T13:44:17.892Z,15.12
2022-11-18T13:46:47.848Z,15.09
2022-11-18T13:49:19.904Z,14.99
2022-11-18T13:51:47.350Z,14.94
2022-11-18T13:54:22.097Z,14.91
2022-11-18T13:56:48.988Z,14.76
2022-11-18T13:59:20.176Z,14.72
2022-11-18T14:01:52.837Z,14.73
2022-11-18T14:04:25.529Z,14.78
2022-11-18T14:06:52.464Z,14.79
2022-11-18T14:09:27.348Z,14.83
2022-11-18T14:12:20.259Z,14.73
2022-11-18T14:14:47.932Z,14.73
2022-11-18T14:17:24.746Z,14.72
2022-11-18T14:19:54.537Z,14.77
2022-11-18T14:22:27.144Z,14.77
2022-11-18T14:25:20.158Z,14.70
2022-11-18T14:27:51.965Z,14.61
2022-11-18T14:30:39.957Z,14.65
2022-11-18T14:33:24.288Z,14.73
2022-11-18T14:35:55.656Z,14.76
2022-11-18T14:38:57.513Z,14.75
2022-11-18T14:41:44.447Z,14.72
2022-11-18T14:44:13.617Z,14.75
2022-11-18T14:46:42.677Z,14.83
2022-11-18T14:49:22.191Z,14.89
2022-11-18T14:51:50.697Z,14.95
2022-11-18T14:54:25.573Z,15.01
2022-11-18T14:57:00.556Z,14.98
2022-11-18T14:59:27.699Z,14.87
2022-11-18T15:01:55.013Z,14.86
2022-11-18T15:04:22.388Z,14.85
2022-11-18T15:06:49.445Z,14.90
2022-11-18T15:09:16.816Z,14.80
2022-11-18T15:27:40.162Z,14.06
2022-11-18T15:30:07.929Z,14.18
2022-11-18T15:32:34.810Z,14.26
2022-11-18T15:35:01.764Z,14.38
2022-11-18T15:37:28.639Z,14.44
2022-11-18T15:39:55.550Z,14.48
2022-11-18T15:42:23.624Z,14.48
2022-11-18T15:44:50.505Z,14.57
2022-11-18T15:47:17.407Z,14.59
2022-11-18T15:49:45.488Z,14.61
2022-11-18T15:52:12.877Z,14.58
2022-11-18T15:54:39.789Z,14.61
2022-11-18T15:57:06.587Z,14.63
2022-11-18T15:59:33.496Z,14.64
2022-11-18T16:02:00.269Z,14.62
2022-11-18T16:04:27.412Z,14.81
2022-11-18T16:06:54.401Z,14.96
2022-11-18T16:09:21.788Z,14.96
2022-11-18T16:12:23.898Z,15.00
2022-11-18T16:15:10.679Z,15.01
2022-11-18T16:17:37.675Z,14.98
2022-11-18T16:20:04.843Z,15.05
2022-11-18T16:22:32.135Z,14.97
2022-11-18T16:24:58.974Z,15.03
2022-11-18T16:27:25.846Z,15.16
2022-11-18T16:29:52.690Z,15.23
2022-11-18T16:32:19.609Z,15.23
2022-11-18T16:34:46.491Z,15.25
2022-11-18T16:37:13.277Z,15.22
2022-11-18T16:39:40.118Z,15.16
2022-11-18T16:42:08.686Z,15.15
2022-11-18T16:44:37.144Z,15.20
2022-11-18T16:47:10.538Z,15.19
2022-11-18T16:49:40.938Z,15.19
2022-11-18T16:52:08.208Z,15.16
2022-11-18T16:54:38.242Z,15.13
2022-11-18T16:57:09.021Z,15.05
2022-11-18T16:59:35.817Z,15.08
2022-11-18T17:02:03.208Z,15.04
2022-11-18T17:04:30.752Z,14.94
2022-11-18T17:07:01.017Z,14.84
2022-11-18T17:09:28.107Z,14.79
2022-11-18T17:11:55.851Z,14.86
2022-11-18T17:14:23.546Z,14.87
2022-11-18T17:16:51.195Z,14.86
2022-11-18T17:19:21.182Z,14.81
2022-11-18T17:21:48.957Z,14.81
2022-11-18T17:24:18.389Z,14.79
2022-11-18T17:26:45.897Z,14.87
2022-11-18T17:29:13.367Z,14.93
2022-11-18T17:31:41.510Z,14.99
2022-11-18T17:34:13.166Z,14.89
2022-11-18T17:36:40.060Z,14.92
2022-11-18T17:39:07.397Z,14.87
2022-11-18T17:42:09.789Z,14.95
2022-11-18T17:44:36.711Z,15.03
2022-11-18T17:47:03.732Z,14.96
2022-11-18T17:49:30.900Z,15.01
2022-11-18T17:51:57.817Z,14.94
2022-11-18T17:54:24.632Z,14.96
2022-11-18T17:56:54.510Z,15.06
2022-11-18T17:59:23.101Z,15.04
2022-11-18T18:01:54.453Z,15.01
2022-11-18T18:04:24.355Z,15.04
2022-11-18T18:06:52.947Z,15.10
2022-11-18T18:09:22.871Z,15.03
2022-11-18T18:11:53.711Z,15.06
2022-11-18T18:14:21.073Z,15.09
2022-11-18T18:16:50.236Z,15.13
2022-11-18T18:19:19.433Z,15.14
2022-11-18T18:21:46.786Z,15.30
2022-11-18T18:24:16.497Z,15.21
2022-11-18T18:26:43.678Z,15.30
2022-11-18T18:29:11.828Z,15.30
2022-11-18T18:31:38.820Z,15.32
2022-11-18T18:34:05.818Z,15.27
2022-11-18T18:36:33.029Z,15.26
2022-11-18T18:39:01.031Z,15.20
2022-11-18T18:41:27.940Z,15.10
2022-11-18T18:43:54.801Z,15.07
2022-11-18T18:46:31.414Z,15.07
2022-11-18T18:49:10.328Z,15.03
2022-11-18T18:51:45.482Z,14.99
2022-11-18T18:54:15.764Z,15.02
2022-11-18T18:56:43.572Z,14.98
2022-11-18T18:59:11.241Z,14.99
2022-11-18T19:01:39.062Z,14.80
2022-11-18T19:04:07.668Z,14.86
2022-11-18T19:06:58.931Z,14.88
2022-11-18T19:09:25.043Z,14.92
2022-11-18T19:12:11.740Z,15.05
2022-11-18T19:14:38.750Z,15.03
2022-11-18T19:17:10.588Z,15.15
2022-11-18T19:19:59.283Z,15.14
2022-11-18T19:22:28.643Z,15.27
2022-11-18T19:24:55.878Z,15.24
2022-11-18T19:27:23.537Z,15.28
2022-11-18T19:29:50.398Z,15.20
2022-11-18T19:32:17.365Z,15.26
2022-11-18T19:34:44.284Z,15.21
2022-11-18T19:37:11.339Z,15.02
2022-11-18T19:39:38.688Z,15.07
2022-11-18T19:42:05.883Z,15.14
2022-11-18T19:44:32.793Z,15.19
2022-11-18T19:46:59.677Z,15.25
2022-11-18T19:49:26.439Z,15.30
2022-11-18T19:51:53.387Z,15.31
2022-11-18T19:54:20.888Z,15.32
2022-11-18T19:56:47.791Z,15.45
2022-11-18T19:59:14.659Z,15.57
2022-11-18T20:01:41.865Z,15.57
2022-11-18T20:04:08.922Z,15.63
2022-11-18T20:06:37.048Z,15.70
2022-11-18T20:09:08.003Z,15.73
2022-11-18T20:11:35.077Z,15.82
2022-11-18T20:14:02.054Z,15.84
2022-11-18T20:16:28.938Z,15.81
2022-11-18T20:18:59.057Z,15.91
2022-11-18T20:21:27.861Z,16.06
2022-11-18T20:24:05.181Z,16.17
2022-11-18T20:26:37.394Z,16.35
2022-11-18T20:29:06.304Z,16.44
2022-11-18T20:31:35.540Z,16.28
2022-11-18T20:34:03.636Z,16.50
2022-11-18T20:36:36.031Z,16.67
2022-11-18T20:39:07.683Z,16.70
2022-11-18T20:41:36.471Z,16.77
2022-11-18T20:44:04.059Z,16.75
2022-11-18T20:46:31.221Z,16.67
2022-11-18T20:48:57.943Z,16.69
2022-11-18T20:51:29.292Z,16.73
2022-11-18T20:53:58.669Z,16.60
2022-11-18T20:56:27.159Z,16.71
2022-11-18T20:58:55.816Z,16.77
2022-11-18T21:01:25.531Z,16.83
2022-11-18T21:03:54.947Z,16.88
2022-11-18T21:06:24.116Z,16.85
2022-11-18T21:08:58.709Z,17.04
2022-11-18T21:11:26.287Z,16.81
2022-11-18T21:14:11.708Z,16.82
2022-11-18T21:16:40.452Z,16.75
2022-11-18T21:19:07.535Z,16.70
2022-11-18T21:21:48.001Z,16.61
2022-11-18T21:24:17.571Z,16.46
2022-11-18T21:26:46.724Z,16.36
2022-11-18T21:29:15.731Z,16.28
2022-11-18T21:31:43.903Z,16.28
2022-11-18T21:34:11.625Z,16.20
2022-11-18T21:36:45.611Z,16.23
2022-11-18T21:39:15.012Z,16.18
2022-11-18T21:41:44.651Z,16.22
2022-11-18T21:44:13.327Z,16.19
2022-11-18T21:46:42.714Z,16.27
2022-11-18T21:49:09.869Z,16.21
2022-11-18T21:51:37.026Z,16.23
2022-11-18T21:54:04.533Z,16.23
2022-11-18T21:56:32.328Z,16.12
2022-11-18T21:59:01.517Z,16.00
2022-11-18T22:01:31.149Z,15.92
2022-11-18T22:03:59.730Z,15.87
2022-11-18T22:06:29.896Z,15.80
2022-11-18T22:08:57.955Z,15.77
2022-11-18T22:11:26.034Z,15.71
2022-11-18T22:13:53.543Z,15.74
2022-11-18T22:16:23.315Z,15.63
2022-11-18T22:18:56.608Z,15.54
2022-11-18T22:21:26.507Z,15.54
2022-11-18T22:23:58.024Z,15.47
2022-11-18T22:26:25.100Z,15.49
2022-11-18T22:28:57.124Z,15.51
2022-11-18T22:31:25.795Z,15.40
2022-11-18T22:33:54.148Z,15.40
2022-11-18T22:36:23.219Z,15.36
2022-11-18T22:38:50.693Z,15.34
2022-11-18T22:41:37.522Z,15.36
2022-11-18T22:44:08.082Z,15.34
2022-11-18T22:46:36.180Z,15.33
2022-11-18T22:49:04.287Z,15.29
2022-11-18T22:51:31.453Z,15.24
2022-11-18T22:54:22.955Z,15.15
2022-11-18T22:56:47.517Z,15.15
2022-11-18T22:59:19.309Z,15.24
2022-11-18T23:01:46.354Z,15.24
2022-11-18T23:04:13.180Z,15.19
2022-11-18T23:06:40.004Z,15.17
2022-11-18T23:09:06.795Z,15.17
2022-11-18T23:11:52.131Z,15.17
2022-11-18T23:14:18.916Z,15.12
2022-11-18T23:16:45.964Z,15.04
2022-11-18T23:19:14.852Z,15.00
2022-11-18T23:21:42.269Z,14.94
2022-11-18T23:24:14.331Z,14.85
2022-11-18T23:26:42.425Z,14.90
2022-11-18T23:29:10.820Z,14.91
2022-11-18T23:31:42.953Z,14.98
2022-11-18T23:34:12.051Z,15.00
2022-11-18T23:36:39.607Z,14.97
2022-11-18T23:39:06.685Z,15.01
2022-11-18T23:41:33.554Z,14.94
2022-11-18T23:44:00.385Z,14.91
2022-11-18T23:46:27.828Z,14.94
2022-11-18T23:48:54.995Z,15.02
2022-11-18T23:51:24.200Z,15.03
2022-11-18T23:53:57.574Z,15.09
2022-11-18T23:56:27.055Z,14.98
2022-11-18T23:58:55.415Z,15.06
